Time;durP1;ratioP1;P1;durP2;ratioP2;P2;SDS_P1;SDS_P2;PMS_P1;PMS_P2;Temp;Humidity;BMP_temperature;BMP_pressure;BME280_temperature;BME280_humidity;BME280_pressure;Samples;Min_cycle;Max_cycle;Signal;HPM_P1;HPM_P2
2023/07/13 00:00:25;;;;;;;17.80;8.18;;;717.30;2432.00;;;;;;5095508;28;20032;-70
2023/07/13 00:02:53;;;;;;;16.48;9.07;;;717.40;2432.00;;;;;;5095345;28;20081;-69
2023/07/13 00:05:22;;;;;;;17.52;8.05;;;717.40;2432.00;;;;;;5075261;28;20055;-69
2023/07/13 00:07:49;;;;;;;19.77;9.90;;;717.50;2432.00;;;;;;5075279;28;20091;-69
2023/07/13 00:10:16;;;;;;;17.60;8.85;;;717.20;2432.00;;;;;;5075578;28;20059;-70
2023/07/13 00:12:42;;;;;;;19.52;9.40;;;717.10;2432.00;;;;;;5075261;28;20043;-74
2023/07/13 00:15:15;;;;;;;19.63;9.98;;;717.10;2432.00;;;;;;5074984;28;20474;-70
2023/07/13 00:17:41;;;;;;;22.10;9.18;;;717.20;2432.00;;;;;;5075104;28;20482;-70
2023/07/13 00:20:09;;;;;;;19.25;8.70;;;717.10;2432.00;;;;;;5075194;28;20032;-79
2023/07/13 00:22:34;;;;;;;18.83;8.73;;;717.00;2432.00;;;;;;5079042;28;20534;-70
2023/07/13 00:25:01;;;;;;;17.88;8.68;;;716.90;2432.00;;;;;;5099804;28;20016;-70
2023/07/13 00:27:26;;;;;;;18.98;8.63;;;716.90;2432.00;;;;;;5097795;28;20009;-68
2023/07/13 00:29:52;;;;;;;16.02;8.20;;;716.90;2432.00;;;;;;5098474;28;20016;-69
2023/07/13 00:32:18;;;;;;;17.25;8.35;;;716.80;2432.00;;;;;;5101894;28;20009;-73
2023/07/13 00:34:44;;;;;;;16.23;8.48;;;716.80;2432.00;;;;;;5092428;28;20461;-69
2023/07/13 00:37:11;;;;;;;17.90;7.90;;;716.80;2432.00;;;;;;5104058;28;20388;-73
2023/07/13 00:39:36;;;;;;;17.45;8.23;;;716.80;2432.00;;;;;;5102321;28;20026;-76
2023/07/13 00:42:03;;;;;;;15.00;8.60;;;716.80;2432.00;;;;;;5099117;28;20016;-80
2023/07/13 00:44:29;;;;;;;15.05;8.48;;;716.80;2432.00;;;;;;5096802;28;20412;-69
2023/07/13 00:46:55;;;;;;;18.48;8.75;;;716.80;2432.00;;;;;;5098840;28;20022;-74
2023/07/13 00:49:24;;;;;;;13.82;8.50;;;692.00;2432.00;;;;;;5096673;28;20021;-70
2023/07/13 00:51:55;;;;;;;16.98;9.23;;;691.90;2432.00;;;;;;5097856;28;20023;-79
2023/07/13 00:54:29;;;;;;;16.70;7.50;;;691.80;2432.00;;;;;;5101449;28;20031;-70
2023/07/13 00:56:59;;;;;;;16.83;9.35;;;691.80;2432.00;;;;;;5097443;28;20024;-75
2023/07/13 00:59:25;;;;;;;18.05;8.85;;;691.90;2432.00;;;;;;5102132;28;20047;-74
2023/07/13 01:01:50;;;;;;;16.73;7.75;;;691.70;2432.00;;;;;;5099979;28;20092;-70
2023/07/13 01:04:17;;;;;;;16.08;8.57;;;691.60;2432.00;;;;;;5098116;28;20016;-69
2023/07/13 01:06:43;;;;;;;22.80;9.13;;;691.60;2432.00;;;;;;5095263;28;20180;-76
2023/07/13 01:09:11;;;;;;;18.65;8.40;;;691.50;2432.00;;;;;;5098729;28;20435;-70
2023/07/13 01:11:36;;;;;;;15.20;8.27;;;691.50;2432.00;;;;;;5099511;28;20035;-79
2023/07/13 01:14:03;;;;;;;19.05;9.00;;;691.20;2432.00;;;;;;5099522;28;20020;-70
2023/07/13 01:16:32;;;;;;;14.90;8.70;;;691.40;2432.00;;;;;;5096511;28;20015;-70
2023/07/13 01:18:59;;;;;;;13.13;8.32;;;691.40;2432.00;;;;;;5100818;28;20028;-74
2023/07/13 01:21:25;;;;;;;15.00;8.07;;;691.30;2432.00;;;;;;5101699;28;20020;-72
2023/07/13 01:23:52;;;;;;;19.20;9.52;;;691.20;2432.00;;;;;;5097253;28;20031;-80
2023/07/13 01:26:17;;;;;;;18.63;8.77;;;666.50;2432.00;;;;;;5099894;28;20359;-75
2023/07/13 01:28:43;;;;;;;16.17;9.38;;;666.50;2432.00;;;;;;5101587;28;20077;-71
2023/07/13 01:31:09;;;;;;;15.57;8.63;;;666.50;2432.00;;;;;;5097685;28;20020;-78
2023/07/13 01:33:39;;;;;;;15.63;8.32;;;666.30;2432.00;;;;;;5097398;28;20007;-74
2023/07/13 01:36:06;;;;;;;17.45;8.20;;;666.30;2432.00;;;;;;5098124;28;20393;-71
2023/07/13 01:38:33;;;;;;;18.75;10.25;;;666.30;2432.00;;;;;;5094195;28;20397;-70
2023/07/13 01:40:59;;;;;;;17.48;9.38;;;666.40;2432.00;;;;;;5099513;28;20132;-70
2023/07/13 01:43:25;;;;;;;14.93;9.18;;;666.30;2432.00;;;;;;5101245;28;20049;-72
2023/07/13 01:45:50;;;;;;;18.35;8.95;;;666.40;2432.00;;;;;;5093885;28;20028;-73
2023/07/13 01:48:16;;;;;;;18.33;9.13;;;666.30;2432.00;;;;;;5097335;28;20020;-70
2023/07/13 01:50:42;;;;;;;16.58;9.38;;;666.20;2432.00;;;;;;5098522;28;20097;-74
2023/07/13 01:53:08;;;;;;;18.20;8.85;;;666.30;2432.00;;;;;;5097879;28;20028;-71
2023/07/13 01:55:35;;;;;;;18.50;8.75;;;666.40;2432.00;;;;;;5099863;28;20020;-79
2023/07/13 01:58:01;;;;;;;15.75;8.73;;;666.40;2432.00;;;;;;5097889;28;20052;-70
2023/07/13 02:00:26;;;;;;;13.43;9.07;;;666.50;2432.00;;;;;;5095509;28;20460;-69
2023/07/13 02:02:52;;;;;;;16.00;8.20;;;666.40;2432.00;;;;;;5096317;28;20035;-70
2023/07/13 02:05:18;;;;;;;21.33;8.57;;;666.50;2432.00;;;;;;5100797;28;20484;-69
2023/07/13 02:07:45;;;;;;;16.63;8.30;;;666.40;2432.00;;;;;;5097537;28;20500;-79
2023/07/13 02:10:11;;;;;;;19.67;9.35;;;666.30;2432.00;;;;;;5092733;28;20031;-75
2023/07/13 02:12:37;;;;;;;17.58;8.60;;;666.40;2432.00;;;;;;5097989;28;20095;-79
2023/07/13 02:15:04;;;;;;;14.63;8.75;;;666.50;2432.00;;;;;;5100326;28;20019;-78
2023/07/13 02:17:30;;;;;;;19.00;8.32;;;666.40;2432.00;;;;;;5101771;28;20051;-69
2023/07/13 02:19:55;;;;;;;16.35;8.77;;;666.30;2432.00;;;;;;5098939;28;20412;-69
2023/07/13 02:22:22;;;;;;;19.73;9.35;;;666.30;2432.00;;;;;;5097782;28;20074;-79
2023/07/13 02:24:48;;;;;;;21.70;9.38;;;666.20;2432.00;;;;;;5097996;28;20016;-69
2023/07/13 02:27:13;;;;;;;21.45;9.88;;;666.20;2432.00;;;;;;5096523;28;20016;-70
2023/07/13 02:29:39;;;;;;;17.35;10.00;;;666.00;2432.00;;;;;;5096847;28;20043;-69
2023/07/13 02:32:05;;;;;;;19.90;9.93;;;665.90;2432.00;;;;;;5097303;28;20078;-70
2023/07/13 02:34:31;;;;;;;19.90;10.48;;;665.80;2432.00;;;;;;5096763;28;20016;-78
2023/07/13 02:36:57;;;;;;;21.13;10.15;;;665.70;2432.00;;;;;;5100851;28;20473;-71
2023/07/13 02:39:22;;;;;;;15.55;9.05;;;665.70;2432.00;;;;;;5097768;28;20044;-78
2023/07/13 02:41:48;;;;;;;19.98;9.60;;;665.70;2432.00;;;;;;5097592;28;20020;-70
2023/07/13 02:44:14;;;;;;;24.35;10.63;;;665.70;2432.00;;;;;;5100052;28;20486;-69
2023/07/13 02:46:40;;;;;;;16.40;10.05;;;665.80;2432.00;;;;;;5097772;28;20017;-69
2023/07/13 02:49:06;;;;;;;20.80;10.63;;;640.90;2432.00;;;;;;5094621;28;20492;-69
2023/07/13 02:51:33;;;;;;;16.33;9.15;;;665.90;2432.00;;;;;;5094759;28;20031;-69
2023/07/13 02:54:00;;;;;;;25.50;10.52;;;666.00;2432.00;;;;;;5097870;28;20043;-70
2023/07/13 02:56:27;;;;;;;16.63;9.27;;;666.00;2432.00;;;;;;5097084;28;20028;-71
2023/07/13 02:58:54;;;;;;;19.25;9.95;;;666.00;2432.00;;;;;;5091694;28;20554;-69
2023/07/13 03:01:21;;;;;;;22.55;10.52;;;666.10;2432.00;;;;;;5095934;28;20020;-70
2023/07/13 03:03:48;;;;;;;18.67;9.77;;;666.30;2432.00;;;;;;5095809;28;20023;-80
2023/07/13 03:06:14;;;;;;;26.20;10.88;;;666.20;2432.00;;;;;;5096641;28;20059;-71
2023/07/13 03:08:41;;;;;;;17.45;10.55;;;666.20;2432.00;;;;;;5099221;28;20099;-74
2023/07/13 03:11:18;;;;;;;21.08;9.65;;;666.30;2432.00;;;;;;5094862;28;20474;-80
2023/07/13 03:13:44;;;;;;;27.83;12.48;;;666.30;2432.00;;;;;;5099132;28;20020;-70
2023/07/13 03:16:11;;;;;;;21.65;9.15;;;666.30;2432.00;;;;;;5099888;28;20044;-69
2023/07/13 03:18:38;;;;;;;18.83;10.00;;;666.20;2432.00;;;;;;5099026;28;20024;-69
2023/07/13 03:21:05;;;;;;;18.40;10.75;;;666.10;2432.00;;;;;;5092667;28;20031;-79
2023/07/13 03:23:31;;;;;;;22.10;11.02;;;666.30;2432.00;;;;;;5097829;28;20493;-70
2023/07/13 03:26:18;;;;;;;17.38;9.82;;;666.30;2432.00;;;;;;5097134;28;20020;-70
2023/07/13 03:28:44;;;;;;;25.30;11.00;;;666.50;2432.00;;;;;;5098861;28;20055;-74
2023/07/13 03:31:14;;;;;;;20.60;11.10;;;691.20;2432.00;;;;;;5098158;28;20024;-69
2023/07/13 03:33:39;;;;;;;21.63;11.38;;;691.30;2432.00;;;;;;5098329;28;20016;-70
2023/07/13 03:36:06;;;;;;;24.25;11.05;;;691.30;2432.00;;;;;;5099957;28;20373;-76
2023/07/13 03:38:33;;;;;;;20.58;10.68;;;691.40;2432.00;;;;;;5101880;28;20111;-69
2023/07/13 03:40:59;;;;;;;21.42;11.55;;;691.40;2432.00;;;;;;5097757;28;20022;-69
2023/07/13 03:43:24;;;;;;;22.23;10.68;;;691.40;2432.00;;;;;;5100615;28;20016;-70
2023/07/13 03:45:50;;;;;;;27.50;11.80;;;691.30;2432.00;;;;;;5102446;28;20024;-69
2023/07/13 03:48:16;;;;;;;22.58;12.27;;;691.40;2432.00;;;;;;5094213;28;20065;-70
2023/07/13 03:50:42;;;;;;;21.05;12.60;;;691.20;2432.00;;;;;;5100640;28;20020;-71
2023/07/13 03:53:08;;;;;;;21.77;12.32;;;666.40;2432.00;;;;;;5100257;28;20508;-70
2023/07/13 03:55:33;;;;;;;28.48;15.15;;;666.30;2432.00;;;;;;5094569;28;20091;-69
2023/07/13 03:58:21;;;;;;;26.20;15.93;;;666.30;2432.00;;;;;;5096721;28;20055;-70
2023/07/13 04:00:47;;;;;;;25.33;12.98;;;666.50;2432.00;;;;;;5096703;28;20039;-70
2023/07/13 04:03:13;;;;;;;22.23;12.50;;;666.30;2432.00;;;;;;5099340;28;20055;-69
2023/07/13 04:05:40;;;;;;;23.52;12.90;;;666.30;2432.00;;;;;;5104271;28;20380;-70
2023/07/13 04:08:06;;;;;;;22.70;12.75;;;666.00;2432.00;;;;;;5099470;28;20809;-71
2023/07/13 04:10:32;;;;;;;24.88;11.73;;;666.00;2432.00;;;;;;5096620;28;20056;-71
2023/07/13 04:12:57;;;;;;;20.52;12.60;;;665.80;2432.00;;;;;;5102626;28;20051;-70
2023/07/13 04:15:23;;;;;;;19.23;12.55;;;665.90;2432.00;;;;;;5099372;28;20151;-69
2023/07/13 04:17:48;;;;;;;30.50;13.32;;;665.80;2432.00;;;;;;5083169;28;20413;-69
2023/07/13 04:20:14;;;;;;;23.17;12.52;;;665.80;2432.00;;;;;;5086500;28;20482;-69
2023/07/13 04:22:40;;;;;;;18.38;12.30;;;665.80;2432.00;;;;;;5080053;28;20028;-69
2023/07/13 04:25:06;;;;;;;21.23;12.93;;;665.90;2432.00;;;;;;5079910;28;20181;-70
2023/07/13 04:27:32;;;;;;;22.30;12.57;;;665.90;2432.00;;;;;;5079619;28;20495;-71
2023/07/13 04:29:57;;;;;;;22.90;13.57;;;665.90;2432.00;;;;;;5082473;28;20470;-70
2023/07/13 04:32:23;;;;;;;23.40;14.23;;;665.90;2432.00;;;;;;5089916;28;20028;-70
2023/07/13 04:34:53;;;;;;;22.92;14.52;;;666.00;2432.00;;;;;;5086187;28;20031;-71
2023/07/13 04:37:20;;;;;;;23.70;13.82;;;666.00;2432.00;;;;;;5086181;28;20111;-71
2023/07/13 04:39:45;;;;;;;22.50;15.10;;;666.00;2432.00;;;;;;5081718;28;20482;-71
2023/07/13 04:42:11;;;;;;;26.63;14.93;;;666.00;2432.00;;;;;;5081240;28;20035;-70
2023/07/13 04:44:37;;;;;;;27.08;15.07;;;666.10;2432.00;;;;;;5073967;28;20063;-71
2023/07/13 04:47:02;;;;;;;23.00;14.55;;;666.20;2432.00;;;;;;5085618;28;20024;-72
2023/07/13 04:49:28;;;;;;;30.60;18.23;;;666.20;2432.00;;;;;;5085671;28;20028;-70
2023/07/13 04:51:54;;;;;;;30.80;16.20;;;666.30;2432.00;;;;;;5088271;28;20032;-71
2023/07/13 04:54:21;;;;;;;23.23;16.88;;;666.50;2432.00;;;;;;5081678;28;20441;-70
2023/07/13 10:03:53;;;;;;;19.83;7.68;;;871.10;1843.20;;;;;;5102154;27;20893;-73
2023/07/13 10:06:26;;;;;;;19.35;9.13;;;;;;;;;;5088166;28;20052;-75
2023/07/13 10:08:52;;;;;;;20.15;8.15;;;922.00;1510.40;;;;;;5089281;28;20376;-73
2023/07/13 10:11:22;;;;;;;19.30;8.45;;;922.50;1587.20;;;;;;5088985;28;20024;-79
2023/07/13 10:13:56;;;;;;;23.60;8.07;;;922.30;1536.00;;;;;;5089034;28;20543;-74
2023/07/13 10:16:24;;;;;;;18.45;9.05;;;947.50;1484.80;;;;;;5088734;28;20099;-72
2023/07/13 10:18:55;;;;;;;15.98;7.80;;;947.30;1459.20;;;;;;5089307;28;20066;-77
2023/07/13 10:21:24;;;;;;;16.30;8.65;;;948.10;1459.20;;;;;;5085608;28;20119;-76
2023/07/13 10:24:05;;;;;;;17.15;8.57;;;;;;;;;;5083241;28;20031;-72
2023/07/13 10:26:34;;;;;;;21.48;7.82;;;972.90;1382.40;;;;;;5085399;28;20021;-74
2023/07/13 10:29:11;;;;;;;19.38;7.97;;;947.90;1382.40;;;;;;5083339;28;20016;-74
2023/07/13 10:31:38;;;;;;;18.85;8.23;;;948.10;1408.00;;;;;;5085973;28;20033;-73
2023/07/13 10:34:05;;;;;;;18.98;7.70;;;973.00;1408.00;;;;;;5092655;28;20072;-72
2023/07/13 10:36:40;;;;;;;18.70;8.18;;;972.90;1382.40;;;;;;5086077;28;20020;-72
2023/07/13 10:39:07;;;;;;;18.05;8.13;;;972.80;1433.60;;;;;;5086418;28;20036;-72
2023/07/13 10:41:38;;;;;;;17.50;7.95;;;972.80;1433.60;;;;;;5087096;28;20027;-73
2023/07/13 10:44:06;;;;;;;17.30;8.05;;;948.00;1408.00;;;;;;5083203;28;20028;-73
2023/07/13 10:46:33;;;;;;;19.00;7.35;;;947.80;1408.00;;;;;;5079712;28;20033;-72
2023/07/13 10:49:05;;;;;;;20.67;7.38;;;947.90;1459.20;;;;;;5084318;28;20051;-72
2023/07/13 10:51:32;;;;;;;17.05;7.47;;;947.80;1408.00;;;;;;5085819;28;20075;-70
2023/07/13 10:54:22;;;;;;;22.88;7.57;;;947.60;1382.40;;;;;;5083303;28;20024;-73
2023/07/13 10:56:51;;;;;;;17.67;7.97;;;947.70;1382.40;;;;;;5082241;28;20016;-72
2023/07/13 10:59:25;;;;;;;15.48;7.53;;;947.80;1408.00;;;;;;5083796;28;20025;-73
2023/07/13 11:01:59;;;;;;;14.73;6.72;;;948.10;1408.00;;;;;;5084973;28;20131;-73
2023/07/13 11:04:29;;;;;;;24.90;8.00;;;972.80;1382.40;;;;;;5068614;28;20397;-73
2023/07/13 11:07:09;;;;;;;20.42;7.57;;;948.10;1408.00;;;;;;5069865;28;20381;-73
2023/07/13 11:09:44;;;;;;;17.65;8.57;;;972.80;1408.00;;;;;;5067580;28;20540;-73
2023/07/13 11:12:17;;;;;;;18.35;7.10;;;948.10;1382.40;;;;;;5067008;28;20094;-72
2023/07/13 11:14:55;;;;;;;23.88;7.40;;;948.10;1408.00;;;;;;5065286;28;20046;-72
2023/07/13 11:17:31;;;;;;;26.98;8.18;;;973.00;1408.00;;;;;;5065974;28;20487;-74
2023/07/13 11:20:12;;;;;;;15.13;7.55;;;973.00;1331.20;;;;;;5064312;28;20111;-72
2023/07/13 11:22:44;;;;;;;21.48;7.22;;;973.00;1331.20;;;;;;5073030;28;20080;-74
2023/07/13 11:25:32;;;;;;;20.17;6.53;;;973.00;1331.20;;;;;;5081970;28;20478;-71
2023/07/13 11:28:07;;;;;;;18.52;7.00;;;973.10;1305.60;;;;;;5073436;28;20024;-72
2023/07/13 11:30:42;;;;;;;15.73;7.40;;;973.10;1305.60;;;;;;5069329;28;20485;-72
2023/07/13 11:33:20;;;;;;;18.52;7.03;;;973.20;1280.00;;;;;;5065687;28;20441;-76
2023/07/13 11:36:04;;;;;;;18.55;6.63;;;973.00;1305.60;;;;;;5068435;28;20389;-72
2023/07/13 11:38:40;;;;;;;20.50;7.27;;;973.10;1356.80;;;;;;5067484;28;20116;-74
2023/07/13 11:41:13;;;;;;;18.27;7.25;;;973.20;1305.60;;;;;;5065883;28;20297;-73
2023/07/13 11:43:39;;;;;;;16.90;7.07;;;973.20;1356.80;;;;;;5082704;28;20500;-75
2023/07/13 11:46:21;;;;;;;15.50;6.85;;;973.30;1331.20;;;;;;5065818;28;20028;-73
2023/07/13 11:48:48;;;;;;;22.42;8.55;;;973.20;1331.20;;;;;;5062286;28;20029;-72
2023/07/13 11:51:24;;;;;;;20.88;7.40;;;973.20;1305.60;;;;;;5071067;28;20037;-75
2023/07/13 11:53:53;;;;;;;14.48;6.60;;;973.30;1280.00;;;;;;5068005;28;20070;-71
2023/07/13 11:56:19;;;;;;;20.38;6.60;;;973.30;1331.20;;;;;;5072662;28;20021;-72
2023/07/13 11:58:50;;;;;;;23.02;7.60;;;973.20;1305.60;;;;;;5069343;28;20025;-73
2023/07/13 12:01:26;;;;;;;14.15;6.50;;;973.40;1280.00;;;;;;5067475;28;20041;-71
2023/07/13 12:03:52;;;;;;;18.92;7.15;;;973.70;1280.00;;;;;;5070493;28;20016;-72
2023/07/13 12:06:40;;;;;;;13.43;6.03;;;973.70;1280.00;;;;;;5069019;28;20477;-71
2023/07/13 12:09:18;;;;;;;23.70;7.32;;;973.70;1280.00;;;;;;5067309;28;20040;-70
2023/07/13 12:11:44;;;;;;;17.35;7.20;;;973.70;1305.60;;;;;;5069408;28;20048;-71
2023/07/13 12:14:18;;;;;;;15.77;7.45;;;973.70;1254.40;;;;;;5064160;28;20385;-73
2023/07/13 12:16:46;;;;;;;16.83;6.63;;;973.60;1254.40;;;;;;5067428;28;20032;-73
2023/07/13 12:19:22;;;;;;;15.38;6.53;;;973.30;1280.00;;;;;;5065961;28;20028;-72
2023/07/13 12:21:48;;;;;;;16.88;6.32;;;973.20;1305.60;;;;;;5063845;28;20441;-71
2023/07/13 12:24:16;;;;;;;21.55;7.70;;;973.20;1305.60;;;;;;5061455;28;20124;-73
2023/07/13 12:26:42;;;;;;;19.60;6.30;;;973.40;1280.00;;;;;;5067968;28;20020;-75
2023/07/13 12:29:13;;;;;;;14.85;6.57;;;973.70;1280.00;;;;;;5062311;28;20030;-71
2023/07/13 12:31:44;;;;;;;14.70;6.82;;;973.70;1280.00;;;;;;5072654;28;20029;-71
2023/07/13 12:34:19;;;;;;;11.70;5.78;;;973.70;1280.00;;;;;;5070718;28;20028;-72
2023/07/13 12:36:56;;;;;;;13.10;5.97;;;973.30;1280.00;;;;;;5066052;28;20381;-71
2023/07/13 12:39:49;;;;;;;16.15;6.45;;;973.70;1280.00;;;;;;5076651;28;20409;-72
2023/07/13 12:42:31;;;;;;;50.63;9.05;;;973.70;1280.00;;;;;;5066878;28;20125;-71
2023/07/13 12:45:35;;;;;;;16.27;6.40;;;973.70;1254.40;;;;;;5068238;28;20028;-71
2023/07/13 12:48:12;;;;;;;14.52;6.20;;;973.70;1254.40;;;;;;5061809;28;20029;-71
2023/07/13 12:50:41;;;;;;;12.80;7.00;;;973.70;1228.80;;;;;;5056380;28;20033;-71
2023/07/13 12:53:28;;;;;;;15.65;6.35;;;973.60;1228.80;;;;;;5060006;28;20450;-71
2023/07/13 12:56:00;;;;;;;16.27;6.43;;;973.30;1228.80;;;;;;5061176;28;20453;-76
2023/07/13 12:58:31;;;;;;;15.05;6.65;;;973.20;1254.40;;;;;;5058730;28;20037;-72
2023/07/13 13:00:59;;;;;;;21.17;6.82;;;972.80;1280.00;;;;;;5061750;28;20031;-73
2023/07/13 13:03:41;;;;;;;14.57;5.85;;;973.00;1280.00;;;;;;5063122;28;20098;-71
2023/07/13 13:06:15;;;;;;;11.45;5.35;;;973.20;1280.00;;;;;;5056526;28;20071;-72
2023/07/13 13:08:42;;;;;;;13.77;6.10;;;973.40;1254.40;;;;;;5063592;28;20040;-72
2023/07/13 13:11:09;;;;;;;19.77;6.80;;;973.70;1228.80;;;;;;5057180;28;20393;-74
2023/07/13 13:13:35;;;;;;;16.60;6.40;;;973.30;1228.80;;;;;;5061722;28;20084;-73
2023/07/13 13:16:24;;;;;;;18.98;6.25;;;973.70;1228.80;;;;;;5057370;28;20115;-72
2023/07/13 13:18:51;;;;;;;9.65;5.45;;;973.70;1228.80;;;;;;5057627;28;20113;-73
2023/07/13 13:21:18;;;;;;;14.13;5.63;;;973.70;1228.80;;;;;;5050823;28;20034;-72
2023/07/13 13:23:45;;;;;;;14.23;5.90;;;973.70;1228.80;;;;;;5059724;28;20497;-73
2023/07/13 13:26:15;;;;;;;14.60;5.50;;;973.40;1254.40;;;;;;5069237;28;20541;-74
2023/07/13 13:28:41;;;;;;;13.80;5.30;;;973.40;1254.40;;;;;;5064717;28;20016;-73
2023/07/13 13:31:12;;;;;;;13.68;6.07;;;973.60;1228.80;;;;;;5066579;28;20067;-74
2023/07/13 13:33:43;;;;;;;13.05;5.95;;;973.40;1228.80;;;;;;5068144;28;20040;-71
2023/07/13 13:36:19;;;;;;;11.35;6.03;;;973.30;1228.80;;;;;;5061061;28;20021;-72
2023/07/13 13:38:45;;;;;;;16.50;6.28;;;973.70;1228.80;;;;;;5062533;28;20029;-72
2023/07/13 13:41:13;;;;;;;20.42;6.55;;;973.30;1254.40;;;;;;5069805;28;20040;-71
2023/07/13 13:43:40;;;;;;;17.77;6.65;;;973.20;1280.00;;;;;;5070254;28;20519;-71
2023/07/13 13:46:18;;;;;;;13.75;6.28;;;973.00;1280.00;;;;;;5067329;28;20044;-77
2023/07/13 13:48:44;;;;;;;16.48;6.40;;;972.80;1305.60;;;;;;5067823;28;20033;-70
2023/07/13 13:51:21;;;;;;;11.50;5.85;;;948.10;1280.00;;;;;;5070992;28;20070;-73
2023/07/13 13:53:48;;;;;;;13.90;6.15;;;948.10;1280.00;;;;;;5070721;28;20063;-76
2023/07/13 13:56:18;;;;;;;15.32;6.20;;;973.00;1305.60;;;;;;5062781;28;20060;-74
2023/07/13 13:58:44;;;;;;;12.20;5.85;;;973.20;1305.60;;;;;;5061076;28;20029;-72
2023/07/13 14:01:20;;;;;;;16.13;6.35;;;973.10;1305.60;;;;;;5066384;28;20488;-71
2023/07/13 14:03:48;;;;;;;14.70;5.90;;;973.20;1305.60;;;;;;5024826;28;20057;-73
2023/07/13 14:06:15;;;;;;;16.88;5.75;;;973.20;1305.60;;;;;;5019232;28;20476;-74
2023/07/13 14:08:41;;;;;;;15.23;5.82;;;973.20;1305.60;;;;;;5023337;28;20038;-70
2023/07/13 14:11:12;;;;;;;19.42;5.55;;;973.20;1305.60;;;;;;5020569;28;20029;-76
2023/07/13 14:13:54;;;;;;;17.17;5.65;;;973.00;1305.60;;;;;;5023088;28;20545;-73
2023/07/13 14:16:22;;;;;;;13.55;4.80;;;948.10;1280.00;;;;;;5023973;28;20440;-74
2023/07/13 14:18:49;;;;;;;14.48;5.40;;;972.80;1305.60;;;;;;5021310;28;20121;-70
2023/07/13 14:21:18;;;;;;;15.20;5.03;;;973.00;1305.60;;;;;;5028849;28;20095;-72
2023/07/13 14:23:45;;;;;;;11.52;4.65;;;973.10;1305.60;;;;;;5026120;28;20091;-72
2023/07/13 14:26:16;;;;;;;13.23;4.80;;;973.00;1280.00;;;;;;5020040;28;20419;-70
2023/07/13 14:28:44;;;;;;;10.88;4.28;;;972.80;1331.20;;;;;;5022776;28;20036;-71
2023/07/13 14:31:15;;;;;;;16.95;5.03;;;948.00;1305.60;;;;;;5023890;28;20041;-71
2023/07/13 14:33:40;;;;;;;14.55;5.20;;;948.00;1280.00;;;;;;5019710;28;20061;-71
2023/07/13 14:36:33;;;;;;;13.07;5.13;;;948.10;1331.20;;;;;;5017403;28;20082;-70
2023/07/13 14:39:17;;;;;;;8.43;4.05;;;948.00;1305.60;;;;;;4972732;28;20089;-71
2023/07/13 14:41:43;;;;;;;13.45;4.60;;;947.90;1280.00;;;;;;4976264;28;20584;-70
2023/07/13 14:44:17;;;;;;;18.20;4.90;;;947.60;1280.00;;;;;;4976534;28;20042;-72
2023/07/13 14:46:45;;;;;;;12.10;4.50;;;947.50;1305.60;;;;;;4967862;28;20070;-70
2023/07/13 14:49:33;;;;;;;10.32;4.97;;;947.30;1305.60;;;;;;4982669;28;20169;-71
2023/07/13 14:52:20;;;;;;;15.52;5.82;;;947.20;1331.20;;;;;;4982139;28;20043;-70
2023/07/13 14:54:46;;;;;;;10.70;4.40;;;947.50;1305.60;;;;;;4978463;28;20437;-73
2023/07/13 14:57:13;;;;;;;9.57;5.10;;;947.90;1280.00;;;;;;4959824;28;20043;-71
2023/07/13 14:59:39;;;;;;;15.05;5.38;;;948.00;1280.00;;;;;;4980233;28;20039;-70
2023/07/13 15:02:18;;;;;;;12.63;5.88;;;948.10;1280.00;;;;;;4984110;28;20064;-73
2023/07/13 15:04:45;;;;;;;12.65;5.13;;;948.10;1254.40;;;;;;4997613;28;20027;-71
2023/07/13 15:07:13;;;;;;;12.05;5.00;;;948.10;1254.40;;;;;;5001920;28;20497;-70
2023/07/13 15:09:39;;;;;;;12.43;5.18;;;948.00;1280.00;;;;;;4994782;28;20035;-70
2023/07/13 15:12:05;;;;;;;13.77;5.22;;;948.00;1254.40;;;;;;4993822;28;20094;-71
2023/07/13 15:14:31;;;;;;;11.90;4.68;;;947.90;1305.60;;;;;;4978050;28;20149;-71
2023/07/13 15:16:57;;;;;;;6.60;4.15;;;947.90;1280.00;;;;;;5037231;28;20042;-71
2023/07/13 15:19:23;;;;;;;13.05;4.65;;;947.90;1254.40;;;;;;5047428;28;20397;-71
2023/07/13 15:21:51;;;;;;;12.52;5.28;;;947.90;1280.00;;;;;;5045274;28;20024;-70
2023/07/13 15:24:17;;;;;;;17.48;6.32;;;948.00;1280.00;;;;;;5042565;28;20056;-72
2023/07/13 15:26:48;;;;;;;14.30;5.38;;;948.10;1280.00;;;;;;5049221;28;20450;-70
2023/07/13 15:29:17;;;;;;;13.90;4.50;;;948.00;1280.00;;;;;;5043426;28;20017;-71
2023/07/13 15:31:43;;;;;;;12.88;5.32;;;947.60;1280.00;;;;;;5043853;28;20041;-72
2023/07/13 15:34:15;;;;;;;10.70;4.80;;;947.40;1305.60;;;;;;5049240;28;20509;-71
2023/07/13 15:36:41;;;;;;;9.98;4.22;;;947.50;1305.60;;;;;;5050232;28;20025;-73
2023/07/13 15:39:06;;;;;;;11.90;4.82;;;947.60;1254.40;;;;;;5059908;28;20037;-71
2023/07/13 15:41:34;;;;;;;12.30;5.47;;;947.60;1280.00;;;;;;5054849;28;20151;-71
2023/07/13 15:44:04;;;;;;;10.48;4.82;;;947.40;1280.00;;;;;;5049284;28;20115;-70
2023/07/13 15:46:30;;;;;;;17.08;5.32;;;922.50;1280.00;;;;;;5052333;28;20032;-71
2023/07/13 15:48:58;;;;;;;9.57;4.82;;;922.40;1280.00;;;;;;5048179;28;20036;-70
2023/07/13 15:51:25;;;;;;;11.30;4.60;;;922.40;1280.00;;;;;;5052226;28;20056;-72
2023/07/13 15:53:56;;;;;;;10.57;4.85;;;922.30;1305.60;;;;;;5049216;28;20025;-73
2023/07/13 15:56:25;;;;;;;13.40;5.10;;;922.40;1331.20;;;;;;5049614;28;20024;-74
2023/07/13 15:58:52;;;;;;;17.88;4.78;;;947.20;1331.20;;;;;;5044011;28;20116;-72
2023/07/13 16:01:18;;;;;;;13.70;4.78;;;947.20;1305.60;;;;;;5048040;28;20033;-71
2023/07/13 16:03:45;;;;;;;13.10;4.45;;;922.50;1331.20;;;;;;5068706;28;20029;-70
2023/07/13 16:06:17;;;;;;;12.85;4.00;;;922.20;1356.80;;;;;;5072769;28;20380;-72
2023/07/13 16:08:44;;;;;;;9.68;4.22;;;922.20;1356.80;;;;;;5067527;28;20061;-71
2023/07/13 16:11:17;;;;;;;12.48;4.72;;;922.10;1382.40;;;;;;5067966;28;20030;-72
2023/07/13 16:13:45;;;;;;;15.40;4.88;;;922.10;1356.80;;;;;;5065499;28;20048;-71
2023/07/13 16:16:12;;;;;;;13.55;4.50;;;922.10;1331.20;;;;;;5072447;28;20027;-71
2023/07/13 16:18:37;;;;;;;18.95;4.53;;;922.00;1331.20;;;;;;5063203;28;20032;-73
2023/07/13 16:21:11;;;;;;;9.30;3.72;;;922.00;1331.20;;;;;;5071326;28;20025;-72
2023/07/13 16:23:37;;;;;;;11.80;4.28;;;922.00;1356.80;;;;;;5072708;28;20437;-74
2023/07/13 16:26:04;;;;;;;16.70;4.43;;;922.00;1356.80;;;;;;5072093;28;20025;-72
2023/07/13 16:28:30;;;;;;;14.60;5.07;;;921.80;1331.20;;;;;;5067540;28;20052;-73
2023/07/13 16:30:56;;;;;;;15.30;4.32;;;921.80;1356.80;;;;;;5067673;28;20052;-70
2023/07/13 16:33:22;;;;;;;10.13;4.75;;;921.70;1356.80;;;;;;5072469;28;20033;-71
2023/07/13 16:35:47;;;;;;;18.40;4.05;;;896.90;1331.20;;;;;;5060573;28;20028;-71
2023/07/13 16:38:17;;;;;;;7.05;3.63;;;896.80;1331.20;;;;;;5067515;28;20388;-70
2023/07/13 16:40:43;;;;;;;7.60;3.45;;;896.60;1331.20;;;;;;5068339;28;20028;-70
2023/07/13 16:43:13;;;;;;;11.25;4.20;;;896.40;1356.80;;;;;;5065757;28;20112;-73
2023/07/13 16:45:43;;;;;;;14.65;3.80;;;896.20;1382.40;;;;;;5070401;28;20029;-71
2023/07/13 16:48:18;;;;;;;18.08;3.72;;;871.30;1382.40;;;;;;5060785;28;20485;-76
2023/07/13 16:50:45;;;;;;;;;;;871.30;1408.00;;;;;;5070472;28;20032;-71
2023/07/13 16:53:28;;;;;;;19.75;3.53;;;871.30;1408.00;;;;;;5061453;28;19913;-71
2023/07/13 16:55:55;;;;;;;13.40;3.30;;;871.10;1433.60;;;;;;5070730;28;20363;-72
2023/07/13 16:58:24;;;;;;;12.98;3.80;;;871.10;1433.60;;;;;;5068221;28;20021;-72
2023/07/13 17:00:51;;;;;;;8.57;2.90;;;871.10;1433.60;;;;;;5062239;28;20039;-74
2023/07/13 17:03:18;;;;;;;13.07;3.10;;;871.00;1433.60;;;;;;5067907;28;20105;-72
2023/07/13 17:05:45;;;;;;;12.93;2.97;;;870.90;1433.60;;;;;;5081350;28;20036;-73
2023/07/13 17:08:32;;;;;;;9.57;3.35;;;870.80;1433.60;;;;;;5071551;28;20036;-72
2023/07/13 17:11:00;;;;;;;17.33;4.00;;;870.80;1459.20;;;;;;5063788;28;20535;-72
2023/07/13 17:13:27;;;;;;;8.77;3.33;;;870.70;1459.20;;;;;;5066620;28;20514;-72
2023/07/13 17:15:58;;;;;;;12.50;3.17;;;870.70;1459.20;;;;;;5064474;28;20473;-72
2023/07/13 17:18:35;;;;;;;8.45;3.28;;;870.70;1459.20;;;;;;5063296;28;20033;-73
2023/07/13 17:21:05;;;;;;;9.77;3.17;;;870.70;1484.80;;;;;;5073175;28;20480;-73
2023/07/13 17:23:33;;;;;;;6.25;2.90;;;870.60;1484.80;;;;;;5068216;28;20512;-76
2023/07/13 17:25:58;;;;;;;7.88;2.50;;;870.60;1510.40;;;;;;5066633;28;20035;-77